sensor_id;sensor_type;location;lat;lon;timestamp;temperature;humidity
65231;DHT22;51813;40.666;16.602;2022-07-22T00:01:05;27.00;41.20
65231;DHT22;51813;40.666;16.602;2022-07-22T00:03:30;27.00;41.30
65231;DHT22;51813;40.666;16.602;2022-07-22T00:05:56;27.00;40.90
65231;DHT22;51813;40.666;16.602;2022-07-22T00:08:22;27.00;41.70
65231;DHT22;51813;40.666;16.602;2022-07-22T00:10:48;27.00;41.60
65231;DHT22;51813;40.666;16.602;2022-07-22T00:13:14;27.00;41.80
65231;DHT22;51813;40.666;16.602;2022-07-22T00:15:39;27.00;41.20
65231;DHT22;51813;40.666;16.602;2022-07-22T00:18:05;27.00;41.80
65231;DHT22;51813;40.666;16.602;2022-07-22T00:20:31;27.00;41.40
65231;DHT22;51813;40.666;16.602;2022-07-22T00:22:57;27.00;41.90
65231;DHT22;51813;40.666;16.602;2022-07-22T00:25:22;27.00;41.60
65231;DHT22;51813;40.666;16.602;2022-07-22T00:27:48;27.00;41.40
65231;DHT22;51813;40.666;16.602;2022-07-22T00:30:14;26.90;41.50
65231;DHT22;51813;40.666;16.602;2022-07-22T00:32:40;26.90;41.60
65231;DHT22;51813;40.666;16.602;2022-07-22T00:35:06;26.90;42.70
65231;DHT22;51813;40.666;16.602;2022-07-22T00:37:32;26.90;42.20
65231;DHT22;51813;40.666;16.602;2022-07-22T00:39:57;27.00;42.70
65231;DHT22;51813;40.666;16.602;2022-07-22T00:42:23;27.00;42.00
65231;DHT22;51813;40.666;16.602;2022-07-22T00:44:49;27.00;41.70
65231;DHT22;51813;40.666;16.602;2022-07-22T00:47:15;26.90;41.80
65231;DHT22;51813;40.666;16.602;2022-07-22T00:49:40;26.90;41.90
65231;DHT22;51813;40.666;16.602;2022-07-22T00:52:07;26.90;42.00
65231;DHT22;51813;40.666;16.602;2022-07-22T00:54:32;26.90;41.70
65231;DHT22;51813;40.666;16.602;2022-07-22T00:56:59;26.90;42.00
65231;DHT22;51813;40.666;16.602;2022-07-22T00:59:25;26.90;41.80
65231;DHT22;51813;40.666;16.602;2022-07-22T01:01:51;26.90;42.10
65231;DHT22;51813;40.666;16.602;2022-07-22T01:04:17;26.90;42.10
65231;DHT22;51813;40.666;16.602;2022-07-22T01:06:43;26.90;41.70
65231;DHT22;51813;40.666;16.602;2022-07-22T01:09:12;26.90;40.90
65231;DHT22;51813;40.666;16.602;2022-07-22T01:11:38;26.90;41.20
65231;DHT22;51813;40.666;16.602;2022-07-22T01:14:04;26.90;40.80
65231;DHT22;51813;40.666;16.602;2022-07-22T01:16:30;26.90;41.60
65231;DHT22;51813;40.666;16.602;2022-07-22T01:18:56;26.90;41.40
65231;DHT22;51813;40.666;16.602;2022-07-22T01:21:22;26.90;41.30
65231;DHT22;51813;40.666;16.602;2022-07-22T01:23:48;26.90;41.40
65231;DHT22;51813;40.666;16.602;2022-07-22T01:26:14;26.80;41.40
65231;DHT22;51813;40.666;16.602;2022-07-22T01:28:40;26.90;43.00
65231;DHT22;51813;40.666;16.602;2022-07-22T01:31:07;26.90;42.90
65231;DHT22;51813;40.666;16.602;2022-07-22T01:33:33;26.80;41.40
65231;DHT22;51813;40.666;16.602;2022-07-22T01:36:00;26.80;41.70
65231;DHT22;51813;40.666;16.602;2022-07-22T01:38:26;26.80;41.50
65231;DHT22;51813;40.666;16.602;2022-07-22T01:40:52;26.80;41.80
65231;DHT22;51813;40.666;16.602;2022-07-22T01:43:18;26.80;41.70
65231;DHT22;51813;40.666;16.602;2022-07-22T01:45:47;26.80;41.80
65231;DHT22;51813;40.666;16.602;2022-07-22T01:48:13;26.80;42.10
65231;DHT22;51813;40.666;16.602;2022-07-22T01:50:39;26.80;42.00
65231;DHT22;51813;40.666;16.602;2022-07-22T01:53:05;26.80;42.00
65231;DHT22;51813;40.666;16.602;2022-07-22T01:55:31;26.80;42.20
65231;DHT22;51813;40.666;16.602;2022-07-22T01:57:57;26.80;42.30
65231;DHT22;51813;40.666;16.602;2022-07-22T02:00:23;26.80;41.80
65231;DHT22;51813;40.666;16.602;2022-07-22T02:02:48;26.80;41.80
65231;DHT22;51813;40.666;16.602;2022-07-22T02:05:14;26.80;41.50
65231;DHT22;51813;40.666;16.602;2022-07-22T02:07:40;26.80;42.30
65231;DHT22;51813;40.666;16.602;2022-07-22T02:10:06;26.80;41.80
65231;DHT22;51813;40.666;16.602;2022-07-22T02:12:32;26.70;42.20
65231;DHT22;51813;40.666;16.602;2022-07-22T02:14:58;26.70;42.30
65231;DHT22;51813;40.666;16.602;2022-07-22T02:17:24;26.70;41.90
65231;DHT22;51813;40.666;16.602;2022-07-22T02:19:50;26.80;42.40
65231;DHT22;51813;40.666;16.602;2022-07-22T02:22:16;26.80;41.80
65231;DHT22;51813;40.666;16.602;2022-07-22T02:24:42;26.80;41.20
65231;DHT22;51813;40.666;16.602;2022-07-22T02:27:08;26.80;41.80
65231;DHT22;51813;40.666;16.602;2022-07-22T02:29:34;26.80;41.80
65231;DHT22;51813;40.666;16.602;2022-07-22T02:31:59;26.70;41.70
65231;DHT22;51813;40.666;16.602;2022-07-22T02:34:25;26.70;41.00
65231;DHT22;51813;40.666;16.602;2022-07-22T02:36:51;26.70;42.20
65231;DHT22;51813;40.666;16.602;2022-07-22T02:39:17;26.70;40.70
65231;DHT22;51813;40.666;16.602;2022-07-22T02:41:43;26.70;41.10
65231;DHT22;51813;40.666;16.602;2022-07-22T02:44:09;26.70;41.80
65231;DHT22;51813;40.666;16.602;2022-07-22T02:46:35;26.70;41.40
65231;DHT22;51813;40.666;16.602;2022-07-22T02:49:01;26.70;41.60
65231;DHT22;51813;40.666;16.602;2022-07-22T02:51:28;26.70;41.10
65231;DHT22;51813;40.666;16.602;2022-07-22T02:53:53;26.70;42.00
65231;DHT22;51813;40.666;16.602;2022-07-22T02:56:19;26.70;41.20
65231;DHT22;51813;40.666;16.602;2022-07-22T02:58:45;26.70;41.30
65231;DHT22;51813;40.666;16.602;2022-07-22T03:01:12;26.70;41.30
65231;DHT22;51813;40.666;16.602;2022-07-22T03:03:38;26.70;41.50
65231;DHT22;51813;40.666;16.602;2022-07-22T03:06:04;26.70;42.10
65231;DHT22;51813;40.666;16.602;2022-07-22T03:08:30;26.60;41.10
65231;DHT22;51813;40.666;16.602;2022-07-22T03:10:56;26.70;41.10
65231;DHT22;51813;40.666;16.602;2022-07-22T03:13:22;26.70;41.20
65231;DHT22;51813;40.666;16.602;2022-07-22T03:15:47;26.70;41.30
65231;DHT22;51813;40.666;16.602;2022-07-22T03:18:13;26.70;41.20
65231;DHT22;51813;40.666;16.602;2022-07-22T03:20:39;26.70;41.20
65231;DHT22;51813;40.666;16.602;2022-07-22T03:23:05;26.60;41.40
65231;DHT22;51813;40.666;16.602;2022-07-22T03:25:30;26.70;41.30
65231;DHT22;51813;40.666;16.602;2022-07-22T03:27:58;26.70;41.10
65231;DHT22;51813;40.666;16.602;2022-07-22T03:30:23;26.60;40.70
65231;DHT22;51813;40.666;16.602;2022-07-22T03:32:49;26.60;40.70
65231;DHT22;51813;40.666;16.602;2022-07-22T03:35:15;26.60;40.80
65231;DHT22;51813;40.666;16.602;2022-07-22T03:37:41;26.60;40.30
65231;DHT22;51813;40.666;16.602;2022-07-22T03:40:07;26.70;40.70
65231;DHT22;51813;40.666;16.602;2022-07-22T03:42:34;26.60;40.20
65231;DHT22;51813;40.666;16.602;2022-07-22T03:44:59;26.60;41.30
65231;DHT22;51813;40.666;16.602;2022-07-22T03:47:25;26.60;40.50
65231;DHT22;51813;40.666;16.602;2022-07-22T03:49:52;26.60;41.20
65231;DHT22;51813;40.666;16.602;2022-07-22T03:52:18;26.60;40.50
65231;DHT22;51813;40.666;16.602;2022-07-22T03:54:43;26.60;40.60
65231;DHT22;51813;40.666;16.602;2022-07-22T03:57:10;26.60;40.40
65231;DHT22;51813;40.666;16.602;2022-07-22T03:59:36;26.60;40.70
65231;DHT22;51813;40.666;16.602;2022-07-22T04:02:02;26.60;40.50
65231;DHT22;51813;40.666;16.602;2022-07-22T04:04:28;26.60;40.70
65231;DHT22;51813;40.666;16.602;2022-07-22T04:06:54;26.60;40.30
65231;DHT22;51813;40.666;16.602;2022-07-22T04:09:21;26.60;40.30
65231;DHT22;51813;40.666;16.602;2022-07-22T04:11:47;26.60;41.20
65231;DHT22;51813;40.666;16.602;2022-07-22T04:14:13;26.60;40.60
65231;DHT22;51813;40.666;16.602;2022-07-22T04:16:39;26.60;40.70
65231;DHT22;51813;40.666;16.602;2022-07-22T04:19:04;26.60;40.40
65231;DHT22;51813;40.666;16.602;2022-07-22T04:21:30;26.50;40.40
65231;DHT22;51813;40.666;16.602;2022-07-22T04:23:56;26.50;40.70
65231;DHT22;51813;40.666;16.602;2022-07-22T04:26:22;26.60;41.00
65231;DHT22;51813;40.666;16.602;2022-07-22T04:28:48;26.60;40.80
65231;DHT22;51813;40.666;16.602;2022-07-22T04:31:14;26.60;40.60
65231;DHT22;51813;40.666;16.602;2022-07-22T04:33:39;26.60;41.00
65231;DHT22;51813;40.666;16.602;2022-07-22T04:36:05;26.60;40.50
65231;DHT22;51813;40.666;16.602;2022-07-22T04:38:31;26.50;40.30
65231;DHT22;51813;40.666;16.602;2022-07-22T04:40:57;26.50;41.00
65231;DHT22;51813;40.666;16.602;2022-07-22T04:43:23;26.50;40.60
65231;DHT22;51813;40.666;16.602;2022-07-22T04:45:49;26.50;40.20
65231;DHT22;51813;40.666;16.602;2022-07-22T04:48:16;26.50;40.10
65231;DHT22;51813;40.666;16.602;2022-07-22T04:50:42;26.50;40.80
65231;DHT22;51813;40.666;16.602;2022-07-22T04:53:07;26.50;40.10
65231;DHT22;51813;40.666;16.602;2022-07-22T04:55:33;26.60;40.10
65231;DHT22;51813;40.666;16.602;2022-07-22T04:57:59;26.60;39.90
65231;DHT22;51813;40.666;16.602;2022-07-22T05:00:25;26.50;40.10
65231;DHT22;51813;40.666;16.602;2022-07-22T05:02:51;26.50;40.30
65231;DHT22;51813;40.666;16.602;2022-07-22T05:05:17;26.50;39.80
65231;DHT22;51813;40.666;16.602;2022-07-22T05:07:42;26.50;40.50
65231;DHT22;51813;40.666;16.602;2022-07-22T05:10:08;26.50;40.50
65231;DHT22;51813;40.666;16.602;2022-07-22T05:12:35;26.50;40.10
65231;DHT22;51813;40.666;16.602;2022-07-22T05:15:01;26.60;41.10
65231;DHT22;51813;40.666;16.602;2022-07-22T05:17:27;26.50;40.80
65231;DHT22;51813;40.666;16.602;2022-07-22T05:19:52;26.50;40.50
65231;DHT22;51813;40.666;16.602;2022-07-22T05:22:18;26.60;41.10
65231;DHT22;51813;40.666;16.602;2022-07-22T05:24:44;26.60;40.50
65231;DHT22;51813;40.666;16.602;2022-07-22T05:27:10;26.50;40.90
65231;DHT22;51813;40.666;16.602;2022-07-22T05:29:35;26.60;40.30
65231;DHT22;51813;40.666;16.602;2022-07-22T05:32:01;26.50;41.00
65231;DHT22;51813;40.666;16.602;2022-07-22T05:34:27;26.50;40.10
65231;DHT22;51813;40.666;16.602;2022-07-22T05:36:52;26.50;41.10
65231;DHT22;51813;40.666;16.602;2022-07-22T05:39:18;26.50;40.80
65231;DHT22;51813;40.666;16.602;2022-07-22T05:41:44;26.50;41.10
65231;DHT22;51813;40.666;16.602;2022-07-22T05:44:10;26.50;40.60
65231;DHT22;51813;40.666;16.602;2022-07-22T05:46:35;26.60;40.90
65231;DHT22;51813;40.666;16.602;2022-07-22T05:49:01;26.50;40.20
65231;DHT22;51813;40.666;16.602;2022-07-22T05:51:28;26.50;40.30
65231;DHT22;51813;40.666;16.602;2022-07-22T05:53:53;26.50;39.60
65231;DHT22;51813;40.666;16.602;2022-07-22T05:56:19;26.50;39.70
65231;DHT22;51813;40.666;16.602;2022-07-22T05:58:45;26.60;39.60
65231;DHT22;51813;40.666;16.602;2022-07-22T06:01:11;26.50;39.60
65231;DHT22;51813;40.666;16.602;2022-07-22T06:03:37;26.50;39.90
65231;DHT22;51813;40.666;16.602;2022-07-22T06:06:04;26.50;40.50
65231;DHT22;51813;40.666;16.602;2022-07-22T06:08:31;26.50;40.40
65231;DHT22;51813;40.666;16.602;2022-07-22T06:10:58;26.50;39.80
65231;DHT22;51813;40.666;16.602;2022-07-22T06:13:24;26.60;40.30
65231;DHT22;51813;40.666;16.602;2022-07-22T06:15:51;26.60;40.20
65231;DHT22;51813;40.666;16.602;2022-07-22T06:18:16;26.50;38.30
65231;DHT22;51813;40.666;16.602;2022-07-22T06:20:42;26.50;38.60
65231;DHT22;51813;40.666;16.602;2022-07-22T06:23:08;26.50;39.50
65231;DHT22;51813;40.666;16.602;2022-07-22T06:25:34;26.50;40.00
65231;DHT22;51813;40.666;16.602;2022-07-22T06:28:00;26.50;39.00
65231;DHT22;51813;40.666;16.602;2022-07-22T06:30:25;26.50;39.30
65231;DHT22;51813;40.666;16.602;2022-07-22T06:32:52;26.50;39.30
65231;DHT22;51813;40.666;16.602;2022-07-22T06:35:18;26.50;39.00
65231;DHT22;51813;40.666;16.602;2022-07-22T06:37:44;26.50;39.20
65231;DHT22;51813;40.666;16.602;2022-07-22T06:40:10;26.50;37.70
65231;DHT22;51813;40.666;16.602;2022-07-22T06:42:36;26.50;38.20
65231;DHT22;51813;40.666;16.602;2022-07-22T06:45:02;26.50;38.10
65231;DHT22;51813;40.666;16.602;2022-07-22T06:47:28;26.50;39.50
65231;DHT22;51813;40.666;16.602;2022-07-22T06:49:54;26.50;38.00
65231;DHT22;51813;40.666;16.602;2022-07-22T06:52:20;26.50;37.80
65231;DHT22;51813;40.666;16.602;2022-07-22T06:54:46;26.50;37.50
65231;DHT22;51813;40.666;16.602;2022-07-22T06:57:11;26.50;37.80
65231;DHT22;51813;40.666;16.602;2022-07-22T06:59:37;26.50;37.90
65231;DHT22;51813;40.666;16.602;2022-07-22T07:02:03;26.60;39.10
65231;DHT22;51813;40.666;16.602;2022-07-22T07:04:29;26.60;39.40
65231;DHT22;51813;40.666;16.602;2022-07-22T07:06:55;26.60;38.30
65231;DHT22;51813;40.666;16.602;2022-07-22T07:09:20;26.60;38.20
65231;DHT22;51813;40.666;16.602;2022-07-22T07:11:46;26.50;38.10
65231;DHT22;51813;40.666;16.602;2022-07-22T07:14:12;26.60;39.40
65231;DHT22;51813;40.666;16.602;2022-07-22T07:16:38;26.60;39.40
65231;DHT22;51813;40.666;16.602;2022-07-22T07:19:03;26.50;38.70
65231;DHT22;51813;40.666;16.602;2022-07-22T07:21:29;26.60;39.80
65231;DHT22;51813;40.666;16.602;2022-07-22T07:23:55;26.50;39.60
65231;DHT22;51813;40.666;16.602;2022-07-22T07:26:21;26.60;39.10
65231;DHT22;51813;40.666;16.602;2022-07-22T07:28:47;26.60;40.70
65231;DHT22;51813;40.666;16.602;2022-07-22T07:31:13;26.60;40.30
65231;DHT22;51813;40.666;16.602;2022-07-22T07:33:38;26.60;40.10
65231;DHT22;51813;40.666;16.602;2022-07-22T07:36:04;26.60;40.40
65231;DHT22;51813;40.666;16.602;2022-07-22T07:38:30;26.50;40.10
65231;DHT22;51813;40.666;16.602;2022-07-22T07:40:56;26.60;40.90
65231;DHT22;51813;40.666;16.602;2022-07-22T07:43:22;26.60;40.60
65231;DHT22;51813;40.666;16.602;2022-07-22T07:45:47;26.50;41.80
65231;DHT22;51813;40.666;16.602;2022-07-22T07:48:13;26.50;42.30
65231;DHT22;51813;40.666;16.602;2022-07-22T07:50:39;26.50;41.40
65231;DHT22;51813;40.666;16.602;2022-07-22T07:53:05;26.50;41.50
65231;DHT22;51813;40.666;16.602;2022-07-22T07:55:31;26.50;43.30
65231;DHT22;51813;40.666;16.602;2022-07-22T07:57:57;26.60;42.40
65231;DHT22;51813;40.666;16.602;2022-07-22T08:00:24;26.60;41.90
65231;DHT22;51813;40.666;16.602;2022-07-22T08:02:54;26.60;42.00
65231;DHT22;51813;40.666;16.602;2022-07-22T08:05:21;26.60;41.90
65231;DHT22;51813;40.666;16.602;2022-07-22T08:07:47;26.60;43.90
65231;DHT22;51813;40.666;16.602;2022-07-22T08:10:13;26.50;42.10
65231;DHT22;51813;40.666;16.602;2022-07-22T08:12:39;26.60;43.00
65231;DHT22;51813;40.666;16.602;2022-07-22T08:15:05;26.50;43.00
65231;DHT22;51813;40.666;16.602;2022-07-22T08:17:33;26.50;42.80
65231;DHT22;51813;40.666;16.602;2022-07-22T08:19:59;26.50;42.40
65231;DHT22;51813;40.666;16.602;2022-07-22T08:22:25;26.60;43.10
65231;DHT22;51813;40.666;16.602;2022-07-22T08:24:50;26.60;42.50
65231;DHT22;51813;40.666;16.602;2022-07-22T08:27:16;26.60;42.20
65231;DHT22;51813;40.666;16.602;2022-07-22T08:29:42;26.60;41.70
65231;DHT22;51813;40.666;16.602;2022-07-22T08:32:08;26.60;41.00
65231;DHT22;51813;40.666;16.602;2022-07-22T08:34:34;26.60;41.50
65231;DHT22;51813;40.666;16.602;2022-07-22T08:37:00;26.60;40.90
65231;DHT22;51813;40.666;16.602;2022-07-22T08:39:26;26.60;42.30
65231;DHT22;51813;40.666;16.602;2022-07-22T08:41:52;26.60;41.20
65231;DHT22;51813;40.666;16.602;2022-07-22T08:44:19;26.60;42.10
65231;DHT22;51813;40.666;16.602;2022-07-22T08:46:45;26.60;41.90
65231;DHT22;51813;40.666;16.602;2022-07-22T08:49:14;26.60;40.30
65231;DHT22;51813;40.666;16.602;2022-07-22T08:51:40;26.60;41.40
65231;DHT22;51813;40.666;16.602;2022-07-22T08:54:05;26.60;40.80
65231;DHT22;51813;40.666;16.602;2022-07-22T08:56:31;26.60;41.70
65231;DHT22;51813;40.666;16.602;2022-07-22T08:58:57;26.60;41.50
65231;DHT22;51813;40.666;16.602;2022-07-22T09:01:23;26.60;42.00
65231;DHT22;51813;40.666;16.602;2022-07-22T09:03:51;26.60;41.10
65231;DHT22;51813;40.666;16.602;2022-07-22T09:06:22;26.60;41.00
65231;DHT22;51813;40.666;16.602;2022-07-22T09:09:05;26.60;40.50
65231;DHT22;51813;40.666;16.602;2022-07-22T09:11:32;26.70;40.00
65231;DHT22;51813;40.666;16.602;2022-07-22T09:14:00;26.70;41.70
65231;DHT22;51813;40.666;16.602;2022-07-22T09:16:46;26.70;41.30
65231;DHT22;51813;40.666;16.602;2022-07-22T09:19:13;26.80;39.10
65231;DHT22;51813;40.666;16.602;2022-07-22T09:21:43;26.90;38.30
65231;DHT22;51813;40.666;16.602;2022-07-22T09:24:31;27.10;37.60
65231;DHT22;51813;40.666;16.602;2022-07-22T09:26:58;27.10;37.30
65231;DHT22;51813;40.666;16.602;2022-07-22T09:29:24;27.20;36.70
65231;DHT22;51813;40.666;16.602;2022-07-22T09:31:51;27.20;36.00
65231;DHT22;51813;40.666;16.602;2022-07-22T09:34:31;27.30;36.60
65231;DHT22;51813;40.666;16.602;2022-07-22T09:37:00;27.40;35.20
65231;DHT22;51813;40.666;16.602;2022-07-22T09:39:28;27.50;35.10
65231;DHT22;51813;40.666;16.602;2022-07-22T09:42:04;27.60;34.70
65231;DHT22;51813;40.666;16.602;2022-07-22T09:44:31;27.60;35.50
65231;DHT22;51813;40.666;16.602;2022-07-22T09:46:57;27.50;35.60
65231;DHT22;51813;40.666;16.602;2022-07-22T09:49:34;27.50;35.40
65231;DHT22;51813;40.666;16.602;2022-07-22T09:52:01;27.50;35.50
65231;DHT22;51813;40.666;16.602;2022-07-22T09:54:29;27.50;35.60
65231;DHT22;51813;40.666;16.602;2022-07-22T09:56:55;27.50;35.80
65231;DHT22;51813;40.666;16.602;2022-07-22T09:59:21;27.50;36.10
65231;DHT22;51813;40.666;16.602;2022-07-22T10:01:51;27.60;35.60
65231;DHT22;51813;40.666;16.602;2022-07-22T10:04:20;27.60;35.20
65231;DHT22;51813;40.666;16.602;2022-07-22T10:06:47;27.70;36.10
65231;DHT22;51813;40.666;16.602;2022-07-22T10:09:14;27.80;35.30
65231;DHT22;51813;40.666;16.602;2022-07-22T10:11:42;27.80;35.50
65231;DHT22;51813;40.666;16.602;2022-07-22T10:14:14;27.80;35.70
65231;DHT22;51813;40.666;16.602;2022-07-22T10:16:42;27.80;35.60
65231;DHT22;51813;40.666;16.602;2022-07-22T10:19:09;27.80;35.90
65231;DHT22;51813;40.666;16.602;2022-07-22T10:21:35;27.70;35.60
65231;DHT22;51813;40.666;16.602;2022-07-22T10:24:12;27.80;35.90
65231;DHT22;51813;40.666;16.602;2022-07-22T10:26:55;27.80;36.00
65231;DHT22;51813;40.666;16.602;2022-07-22T10:29:31;27.90;34.30
65231;DHT22;51813;40.666;16.602;2022-07-22T10:40:21;28.10;34.50
65231;DHT22;51813;40.666;16.602;2022-07-22T10:45:56;28.10;34.60
65231;DHT22;51813;40.666;16.602;2022-07-22T10:53:24;28.10;34.80
65231;DHT22;51813;40.666;16.602;2022-07-22T10:56:04;28.10;34.50
65231;DHT22;51813;40.666;16.602;2022-07-22T11:01:04;28.20;35.60
65231;DHT22;51813;40.666;16.602;2022-07-22T11:03:31;28.20;35.40
65231;DHT22;51813;40.666;16.602;2022-07-22T11:08:38;28.20;34.70
65231;DHT22;51813;40.666;16.602;2022-07-22T11:11:04;28.20;34.40
65231;DHT22;51813;40.666;16.602;2022-07-22T11:13:32;28.20;34.00
65231;DHT22;51813;40.666;16.602;2022-07-22T11:16:18;28.30;33.00
65231;DHT22;51813;40.666;16.602;2022-07-22T11:21:23;28.40;32.70
65231;DHT22;51813;40.666;16.602;2022-07-22T11:23:51;28.50;33.50
65231;DHT22;51813;40.666;16.602;2022-07-22T11:26:23;28.40;33.10
65231;DHT22;51813;40.666;16.602;2022-07-22T11:28:49;28.40;33.20
65231;DHT22;51813;40.666;16.602;2022-07-22T11:31:18;28.50;32.90
65231;DHT22;51813;40.666;16.602;2022-07-22T11:33:44;28.50;33.40
65231;DHT22;51813;40.666;16.602;2022-07-22T11:36:10;28.60;33.60
65231;DHT22;51813;40.666;16.602;2022-07-22T11:38:48;28.60;33.20
65231;DHT22;51813;40.666;16.602;2022-07-22T11:41:16;28.40;33.30
65231;DHT22;51813;40.666;16.602;2022-07-22T11:43:44;28.20;33.80
65231;DHT22;51813;40.666;16.602;2022-07-22T11:46:10;28.10;34.20
65231;DHT22;51813;40.666;16.602;2022-07-22T11:48:38;28.00;34.50
65231;DHT22;51813;40.666;16.602;2022-07-22T11:51:06;28.00;34.60
65231;DHT22;51813;40.666;16.602;2022-07-22T11:53:32;27.90;34.90
65231;DHT22;51813;40.666;16.602;2022-07-22T11:56:02;27.90;35.20
65231;DHT22;51813;40.666;16.602;2022-07-22T11:58:39;27.80;35.30
65231;DHT22;51813;40.666;16.602;2022-07-22T12:01:06;27.80;35.80
65231;DHT22;51813;40.666;16.602;2022-07-22T12:03:34;27.70;36.10
65231;DHT22;51813;40.666;16.602;2022-07-22T12:06:01;27.70;36.40
65231;DHT22;51813;40.666;16.602;2022-07-22T12:08:27;27.70;36.70
65231;DHT22;51813;40.666;16.602;2022-07-22T12:10:55;27.70;37.00
65231;DHT22;51813;40.666;16.602;2022-07-22T12:13:21;27.70;37.00
65231;DHT22;51813;40.666;16.602;2022-07-22T12:15:47;27.70;37.50
65231;DHT22;51813;40.666;16.602;2022-07-22T12:18:18;27.70;37.40
65231;DHT22;51813;40.666;16.602;2022-07-22T12:20:45;27.70;36.70
65231;DHT22;51813;40.666;16.602;2022-07-22T12:23:12;27.70;37.20
65231;DHT22;51813;40.666;16.602;2022-07-22T12:25:55;27.70;37.60
65231;DHT22;51813;40.666;16.602;2022-07-22T12:28:21;27.60;37.60
65231;DHT22;51813;40.666;16.602;2022-07-22T12:30:48;27.60;37.90
65231;DHT22;51813;40.666;16.602;2022-07-22T12:33:16;27.60;38.10
65231;DHT22;51813;40.666;16.602;2022-07-22T12:35:42;27.60;38.40
65231;DHT22;51813;40.666;16.602;2022-07-22T12:38:10;27.70;38.30
65231;DHT22;51813;40.666;16.602;2022-07-22T12:40:37;27.70;38.20
65231;DHT22;51813;40.666;16.602;2022-07-22T12:43:08;27.70;37.10
65231;DHT22;51813;40.666;16.602;2022-07-22T12:45:35;27.70;37.30
65231;DHT22;51813;40.666;16.602;2022-07-22T12:50:54;27.80;37.20
65231;DHT22;51813;40.666;16.602;2022-07-22T12:53:24;27.80;37.50
65231;DHT22;51813;40.666;16.602;2022-07-22T12:55:52;27.80;37.40
65231;DHT22;51813;40.666;16.602;2022-07-22T12:58:21;27.80;37.60
65231;DHT22;51813;40.666;16.602;2022-07-22T13:00:49;27.80;37.70
65231;DHT22;51813;40.666;16.602;2022-07-22T13:03:15;27.70;38.10
65231;DHT22;51813;40.666;16.602;2022-07-22T13:05:46;27.70;37.80
65231;DHT22;51813;40.666;16.602;2022-07-22T13:08:12;27.80;39.80
65231;DHT22;51813;40.666;16.602;2022-07-22T13:10:38;27.80;38.90
65231;DHT22;51813;40.666;16.602;2022-07-22T13:13:03;27.80;39.20
65231;DHT22;51813;40.666;16.602;2022-07-22T13:15:29;27.90;38.40
65231;DHT22;51813;40.666;16.602;2022-07-22T13:17:55;27.90;37.70
65231;DHT22;51813;40.666;16.602;2022-07-22T13:20:21;28.00;38.20
65231;DHT22;51813;40.666;16.602;2022-07-22T13:22:47;28.00;38.10
65231;DHT22;51813;40.666;16.602;2022-07-22T13:25:13;28.10;38.50
65231;DHT22;51813;40.666;16.602;2022-07-22T13:27:40;28.10;38.70
65231;DHT22;51813;40.666;16.602;2022-07-22T13:30:06;28.10;38.90
65231;DHT22;51813;40.666;16.602;2022-07-22T13:32:32;28.10;39.10
65231;DHT22;51813;40.666;16.602;2022-07-22T13:34:58;28.20;40.00
65231;DHT22;51813;40.666;16.602;2022-07-22T13:37:24;28.20;38.70
65231;DHT22;51813;40.666;16.602;2022-07-22T13:39:50;28.30;38.80
65231;DHT22;51813;40.666;16.602;2022-07-22T13:42:16;28.30;38.90
65231;DHT22;51813;40.666;16.602;2022-07-22T13:44:44;28.50;38.10
65231;DHT22;51813;40.666;16.602;2022-07-22T13:47:10;28.70;37.90
65231;DHT22;51813;40.666;16.602;2022-07-22T13:49:36;28.60;38.00
65231;DHT22;51813;40.666;16.602;2022-07-22T13:52:03;28.50;38.30
65231;DHT22;51813;40.666;16.602;2022-07-22T13:54:29;28.50;38.80
65231;DHT22;51813;40.666;16.602;2022-07-22T13:56:55;28.50;39.00
65231;DHT22;51813;40.666;16.602;2022-07-22T13:59:23;28.50;39.20
65231;DHT22;51813;40.666;16.602;2022-07-22T14:01:50;28.50;39.90
65231;DHT22;51813;40.666;16.602;2022-07-22T14:04:16;28.60;40.90
65231;DHT22;51813;40.666;16.602;2022-07-22T14:06:41;28.80;39.90
65231;DHT22;51813;40.666;16.602;2022-07-22T14:09:07;29.20;38.60
65231;DHT22;51813;40.666;16.602;2022-07-22T14:11:33;29.10;38.50
65231;DHT22;51813;40.666;16.602;2022-07-22T14:13:58;28.90;39.00
65231;DHT22;51813;40.666;16.602;2022-07-22T14:16:24;28.80;39.30
65231;DHT22;51813;40.666;16.602;2022-07-22T14:19:05;28.70;39.20
65231;DHT22;51813;40.666;16.602;2022-07-22T14:21:33;28.70;39.10
65231;DHT22;51813;40.666;16.602;2022-07-22T14:23:59;28.70;39.50
65231;DHT22;51813;40.666;16.602;2022-07-22T14:26:25;28.70;39.40
65231;DHT22;51813;40.666;16.602;2022-07-22T14:28:50;28.80;39.40
65231;DHT22;51813;40.666;16.602;2022-07-22T14:31:16;28.80;39.70
65231;DHT22;51813;40.666;16.602;2022-07-22T14:33:42;28.80;39.40
65231;DHT22;51813;40.666;16.602;2022-07-22T14:36:08;28.80;39.70
65231;DHT22;51813;40.666;16.602;2022-07-22T14:38:34;28.70;40.20
65231;DHT22;51813;40.666;16.602;2022-07-22T14:41:00;28.70;40.30
65231;DHT22;51813;40.666;16.602;2022-07-22T14:43:25;28.70;40.30
65231;DHT22;51813;40.666;16.602;2022-07-22T14:45:52;28.70;40.60
65231;DHT22;51813;40.666;16.602;2022-07-22T14:48:17;28.70;40.40
65231;DHT22;51813;40.666;16.602;2022-07-22T14:50:43;28.80;40.30
65231;DHT22;51813;40.666;16.602;2022-07-22T14:53:09;28.80;40.10
65231;DHT22;51813;40.666;16.602;2022-07-22T14:55:34;28.80;40.20
65231;DHT22;51813;40.666;16.602;2022-07-22T14:58:00;28.80;40.30
65231;DHT22;51813;40.666;16.602;2022-07-22T15:00:26;29.00;37.60
65231;DHT22;51813;40.666;16.602;2022-07-22T15:02:51;29.60;36.30
65231;DHT22;51813;40.666;16.602;2022-07-22T15:05:17;29.90;36.00
65231;DHT22;51813;40.666;16.602;2022-07-22T15:07:43;30.00;35.20
65231;DHT22;51813;40.666;16.602;2022-07-22T15:10:09;30.10;34.90
65231;DHT22;51813;40.666;16.602;2022-07-22T15:12:36;30.20;34.50
65231;DHT22;51813;40.666;16.602;2022-07-22T15:15:02;30.40;33.70
65231;DHT22;51813;40.666;16.602;2022-07-22T15:17:34;30.40;33.70
65231;DHT22;51813;40.666;16.602;2022-07-22T15:19:59;30.20;33.90
65231;DHT22;51813;40.666;16.602;2022-07-22T15:22:25;30.30;33.40
65231;DHT22;51813;40.666;16.602;2022-07-22T15:24:51;30.30;33.40
65231;DHT22;51813;40.666;16.602;2022-07-22T15:27:16;30.30;33.50
65231;DHT22;51813;40.666;16.602;2022-07-22T15:29:43;30.30;33.40
65231;DHT22;51813;40.666;16.602;2022-07-22T15:32:09;30.40;33.20
65231;DHT22;51813;40.666;16.602;2022-07-22T15:34:35;30.40;33.60
65231;DHT22;51813;40.666;16.602;2022-07-22T15:37:01;30.40;33.50
65231;DHT22;51813;40.666;16.602;2022-07-22T15:39:27;30.30;34.20